createdAt,value
2022-12-04T00:02:31.143Z,71.85
2022-12-04T00:05:33.032Z,71.85
2022-12-04T00:08:35.691Z,71.65
2022-12-04T00:11:38.584Z,72.42
2022-12-04T00:15:16.133Z,72.01
2022-12-04T00:18:02.081Z,71.68
2022-12-04T00:21:10.450Z,72.05
2022-12-04T00:24:12.584Z,71.84
2022-12-04T00:27:14.499Z,71.95
2022-12-04T00:30:16.327Z,71.76
2022-12-04T00:33:18.195Z,71.85
2022-12-04T00:36:24.176Z,71.82
2022-12-04T00:39:25.999Z,71.75
2022-12-04T00:42:27.933Z,71.72
2022-12-04T00:45:29.799Z,71.63
2022-12-04T00:48:32.131Z,71.47
2022-12-04T00:51:33.975Z,71.67
2022-12-04T00:54:35.738Z,71.75
2022-12-04T00:57:37.624Z,71.64
2022-12-04T01:00:43.308Z,71.43
2022-12-04T01:03:45.565Z,71.63
2022-12-04T01:06:47.489Z,71.38
2022-12-04T01:09:49.416Z,71.86
2022-12-04T01:12:53.659Z,71.50
2022-12-04T01:15:55.576Z,71.44
2022-12-04T01:18:57.912Z,71.73
2022-12-04T01:21:59.680Z,71.18
2022-12-04T01:25:01.599Z,71.33
2022-12-04T01:28:03.468Z,71.54
2022-12-04T01:31:08.884Z,71.43
2022-12-04T01:34:10.750Z,71.45
2022-12-04T01:37:12.616Z,71.67
2022-12-04T01:40:16.879Z,71.37
2022-12-04T01:43:19.611Z,71.23
2022-12-04T01:46:21.516Z,71.39
2022-12-04T01:49:29.114Z,71.35
2022-12-04T01:52:31.296Z,71.29
2022-12-04T01:55:33.215Z,71.59
2022-12-04T01:58:41.075Z,71.36
2022-12-04T02:01:52.606Z,70.92
2022-12-04T02:04:54.976Z,71.08
2022-12-04T02:08:00.265Z,70.75
2022-12-04T02:11:20.519Z,70.80
2022-12-04T02:14:45.274Z,70.74
2022-12-04T02:17:57.388Z,70.68
2022-12-04T02:21:25.384Z,70.70
2022-12-04T02:24:36.405Z,70.61
2022-12-04T02:28:08.631Z,70.69
2022-12-04T02:31:15.657Z,70.41
2022-12-04T02:34:25.700Z,69.94
2022-12-04T02:37:32.096Z,70.27
2022-12-04T02:40:51.873Z,70.02
2022-12-04T02:44:14.358Z,70.02
2022-12-04T02:47:20.362Z,70.11
2022-12-04T02:50:24.447Z,70.28
2022-12-04T02:53:36.579Z,69.99
2022-12-04T02:56:44.093Z,70.32
2022-12-04T02:59:48.846Z,69.91
2022-12-04T03:03:07.514Z,69.95
2022-12-04T03:06:14.053Z,70.18
2022-12-04T03:09:21.839Z,69.68
2022-12-04T03:12:36.342Z,69.72
2022-12-04T03:15:47.575Z,70.02
2022-12-04T03:19:00.725Z,69.91
2022-12-04T03:22:07.007Z,69.66
2022-12-04T03:25:09.491Z,70.23
2022-12-04T03:28:22.477Z,69.81
2022-12-04T03:31:35.750Z,70.12
2022-12-04T03:34:55.952Z,69.77
2022-12-04T03:38:00.432Z,69.54
2022-12-04T03:41:07.731Z,69.47
2022-12-04T03:44:16.664Z,69.84
2022-12-04T03:47:32.864Z,69.87
2022-12-04T03:50:39.585Z,69.57
2022-12-04T03:53:56.718Z,68.95
2022-12-04T03:57:10.476Z,69.37
2022-12-04T04:00:14.281Z,69.00
2022-12-04T04:03:30.097Z,68.87
2022-12-04T04:06:45.868Z,68.89
2022-12-04T04:09:54.413Z,68.91
2022-12-04T04:13:21.256Z,68.92
2022-12-04T04:16:46.512Z,68.97
2022-12-04T04:20:13.788Z,68.71
2022-12-04T04:23:37.502Z,68.46
2022-12-04T04:26:43.983Z,68.51
2022-12-04T04:29:52.073Z,68.53
2022-12-04T04:33:11.689Z,68.25
2022-12-04T04:36:25.398Z,68.66
2022-12-04T04:39:59.282Z,68.49
2022-12-04T04:43:17.377Z,68.64
2022-12-04T04:46:31.158Z,68.55
2022-12-04T04:49:36.049Z,68.46
2022-12-04T04:52:41.268Z,68.06
2022-12-04T04:55:44.701Z,68.53
2022-12-04T04:58:46.771Z,68.71
2022-12-04T05:01:48.743Z,68.40
2022-12-04T05:04:50.600Z,68.16
2022-12-04T05:07:52.485Z,68.06
2022-12-04T05:10:54.443Z,67.92
2022-12-04T05:13:56.457Z,67.83
2022-12-04T05:17:01.837Z,68.03
2022-12-04T05:20:07.646Z,68.15
2022-12-04T05:23:09.423Z,67.96
2022-12-04T05:26:11.448Z,67.93
2022-12-04T05:29:13.266Z,67.51
2022-12-04T05:32:15.545Z,68.06
2022-12-04T05:35:17.561Z,67.70
2022-12-04T05:38:19.471Z,67.62
2022-12-04T05:41:21.245Z,67.29
2022-12-04T05:44:23.195Z,67.12
2022-12-04T05:47:25.170Z,67.27
2022-12-04T05:50:27.045Z,67.27
2022-12-04T05:53:28.891Z,67.01
2022-12-04T05:56:30.926Z,66.86
2022-12-04T05:59:33.120Z,66.80
2022-12-04T06:02:34.974Z,66.58
2022-12-04T06:05:36.963Z,66.67
2022-12-04T06:08:38.846Z,66.36
2022-12-04T06:11:43.101Z,65.95
2022-12-04T06:14:44.943Z,66.20
2022-12-04T06:17:46.856Z,66.03
2022-12-04T06:20:48.843Z,65.88
2022-12-04T06:23:52.061Z,65.62
2022-12-04T06:27:26.128Z,65.74
2022-12-04T06:30:20.552Z,65.88
2022-12-04T06:33:22.446Z,65.90
2022-12-04T06:36:24.951Z,65.53
2022-12-04T06:39:26.827Z,65.91
2022-12-04T06:42:28.655Z,65.69
2022-12-04T06:45:30.633Z,65.84
2022-12-04T06:48:33.468Z,64.95
2022-12-04T06:51:37.439Z,65.03
2022-12-04T06:54:39.309Z,65.28
2022-12-04T06:57:41.133Z,65.23
2022-12-04T07:00:42.936Z,65.14
2022-12-04T07:03:51.373Z,64.70
2022-12-04T07:06:54.626Z,64.08
2022-12-04T07:09:56.750Z,64.23
2022-12-04T07:12:58.775Z,63.79
2022-12-04T07:16:02.906Z,63.07
2022-12-04T07:19:04.835Z,62.94
2022-12-04T07:22:08.936Z,62.46
2022-12-04T07:25:10.907Z,61.47
2022-12-04T07:28:12.715Z,61.69
2022-12-04T07:31:17.930Z,61.50
2022-12-04T07:34:19.889Z,61.41
2022-12-04T07:37:21.796Z,61.04
2022-12-04T07:40:23.677Z,60.65
2022-12-04T07:43:27.268Z,59.59
2022-12-04T07:46:29.483Z,59.29
2022-12-04T07:49:31.298Z,59.04
2022-12-04T07:52:39.955Z,58.62
2022-12-04T07:55:42.167Z,58.84
2022-12-04T07:58:44.695Z,57.75
2022-12-04T08:01:46.602Z,57.79
2022-12-04T08:04:51.331Z,57.58
2022-12-04T08:07:53.449Z,57.26
2022-12-04T11:32:21.346Z,53.05
2022-12-04T11:35:26.042Z,51.93
2022-12-04T11:38:30.311Z,51.40
2022-12-04T11:41:33.193Z,51.61
2022-12-04T11:44:36.471Z,51.33
2022-12-04T11:47:38.346Z,51.85
2022-12-04T11:50:47.266Z,52.06
2022-12-04T11:54:02.866Z,51.14
2022-12-04T11:57:15.230Z,50.49
2022-12-04T12:00:19.954Z,50.34
2022-12-04T12:03:39.564Z,51.21
2022-12-04T12:07:09.544Z,50.93
2022-12-04T12:10:19.098Z,50.22
2022-12-04T12:13:34.444Z,50.67
2022-12-04T12:16:49.898Z,50.41
2022-12-04T12:20:31.323Z,50.46
2022-12-04T12:24:10.524Z,50.46
2022-12-04T12:27:39.490Z,50.96
2022-12-04T12:30:55.486Z,50.69
2022-12-04T12:34:43.412Z,50.62
2022-12-04T12:37:52.643Z,50.86
2022-12-04T12:41:01.029Z,50.78
2022-12-04T12:44:05.514Z,51.04
2022-12-04T12:47:17.950Z,50.93
2022-12-04T12:50:29.381Z,50.29
2022-12-04T12:53:36.646Z,50.49
2022-12-04T12:56:47.833Z,50.08
2022-12-04T12:59:57.822Z,50.55
2022-12-04T13:03:23.205Z,49.85
2022-12-04T13:06:33.759Z,49.90
2022-12-04T13:09:42.311Z,49.99
2022-12-04T13:13:07.798Z,49.82
2022-12-04T13:16:19.906Z,50.44
2022-12-04T13:19:29.936Z,50.54
2022-12-04T13:22:59.482Z,50.70
2022-12-04T13:26:28.492Z,50.94
2022-12-04T13:30:02.598Z,50.59
2022-12-04T13:33:39.670Z,50.68
2022-12-04T13:36:50.554Z,50.94
2022-12-04T13:40:20.591Z,50.68
2022-12-04T13:43:33.779Z,50.94
2022-12-04T13:46:40.309Z,51.04
2022-12-04T13:49:46.018Z,50.71
2022-12-04T13:52:49.431Z,50.87
2022-12-04T13:56:03.170Z,51.31
2022-12-04T13:59:27.555Z,51.14
2022-12-04T14:02:35.450Z,51.44
2022-12-04T14:05:42.827Z,51.35
2022-12-04T14:08:44.800Z,51.67
2022-12-04T14:11:51.833Z,51.95
2022-12-04T14:15:00.629Z,51.99
2022-12-04T14:18:11.398Z,52.39
2022-12-04T14:21:13.262Z,52.54
2022-12-04T14:24:31.924Z,52.40
2022-12-04T14:27:42.497Z,52.82
2022-12-04T14:30:45.321Z,52.83
2022-12-04T14:33:52.436Z,52.94
2022-12-04T14:36:56.440Z,53.08
2022-12-04T14:40:00.766Z,53.12
2022-12-04T14:43:02.826Z,53.01
2022-12-04T14:46:23.538Z,53.93
2022-12-04T14:49:41.025Z,53.85
2022-12-04T14:52:59.107Z,53.93
2022-12-04T14:56:39.111Z,54.29
2022-12-04T14:59:49.723Z,54.18
2022-12-04T15:02:58.305Z,54.57
2022-12-04T15:06:07.088Z,54.62
2022-12-04T15:09:39.672Z,54.67
2022-12-04T15:12:47.988Z,55.02
2022-12-04T15:15:50.206Z,55.23
2022-12-04T15:19:01.201Z,55.43
2022-12-04T15:22:11.343Z,55.60
2022-12-04T15:25:30.821Z,55.74
2022-12-04T15:28:40.795Z,55.93
2022-12-04T15:31:53.535Z,56.00
2022-12-04T15:35:06.429Z,56.15
2022-12-04T15:38:13.558Z,56.40
2022-12-04T15:41:31.669Z,56.79
2022-12-04T15:44:35.399Z,56.61
2022-12-04T15:47:41.355Z,57.09
2022-12-04T15:50:43.241Z,57.58
2022-12-04T15:53:46.842Z,57.17
2022-12-04T15:57:06.785Z,57.36
2022-12-04T16:00:31.394Z,57.35
2022-12-04T16:03:48.514Z,57.72
2022-12-04T16:06:53.872Z,57.96
2022-12-04T16:10:03.285Z,58.01
2022-12-04T16:13:07.381Z,58.06
2022-12-04T16:16:14.164Z,58.32
2022-12-04T16:19:27.806Z,58.19
2022-12-04T16:22:31.561Z,58.42
2022-12-04T16:25:33.660Z,58.52
2022-12-04T16:28:35.538Z,58.84
2022-12-04T16:31:38.717Z,58.69
2022-12-04T16:34:40.739Z,58.81
2022-12-04T16:37:43.221Z,59.15
2022-12-04T16:40:47.058Z,59.26
2022-12-04T16:43:57.516Z,59.58
2022-12-04T16:46:59.425Z,59.53
2022-12-04T16:50:01.311Z,59.55
2022-12-04T16:53:03.612Z,59.86
2022-12-04T16:56:05.701Z,59.87
2022-12-04T16:59:11.766Z,60.00
2022-12-04T17:02:23.445Z,60.10
2022-12-04T17:05:29.640Z,60.07
2022-12-04T17:08:31.991Z,60.19
2022-12-04T17:11:33.870Z,60.63
2022-12-04T17:14:35.782Z,60.84
2022-12-04T17:17:39.219Z,61.15
2022-12-04T17:20:42.513Z,60.83
2022-12-04T17:23:44.837Z,61.22
2022-12-04T17:26:46.740Z,61.14
2022-12-04T17:29:48.676Z,61.79
2022-12-04T17:32:50.618Z,61.54
2022-12-04T17:35:54.146Z,62.03
2022-12-04T17:38:57.801Z,62.04
2022-12-04T17:41:59.652Z,62.19
2022-12-04T17:45:01.580Z,62.37
2022-12-04T17:48:03.421Z,62.33
2022-12-04T17:51:13.966Z,62.30
2022-12-04T17:54:16.033Z,62.53
2022-12-04T17:57:18.962Z,62.73
2022-12-04T18:00:23.319Z,63.15
2022-12-04T18:03:25.212Z,63.04
2022-12-04T18:06:30.049Z,63.47
2022-12-04T18:09:33.176Z,63.76
2022-12-04T18:12:35.117Z,63.83
2022-12-04T18:15:36.975Z,63.59
2022-12-04T18:18:39.373Z,63.76
2022-12-04T18:21:41.747Z,64.09
2022-12-04T18:24:46.243Z,64.10
2022-12-04T18:27:48.075Z,64.08
2022-12-04T18:30:50.020Z,64.54
2022-12-04T18:33:52.011Z,64.57
2022-12-04T18:36:54.019Z,64.75
2022-12-04T18:39:56.327Z,64.91
2022-12-04T18:43:00.143Z,64.85
2022-12-04T18:46:08.312Z,64.99
2022-12-04T18:49:13.735Z,65.22
2022-12-04T18:52:15.809Z,65.44
2022-12-04T18:55:17.715Z,65.12
2022-12-04T18:58:22.731Z,65.43
2022-12-04T19:01:25.604Z,65.43
2022-12-04T19:04:27.658Z,65.56
2022-12-04T19:07:29.689Z,65.58
2022-12-04T19:10:31.535Z,66.21
2022-12-04T19:13:34.072Z,66.13
2022-12-04T19:16:36.082Z,65.97
2022-12-04T19:19:38.162Z,66.26
2022-12-04T19:22:40.415Z,66.34
2022-12-04T19:25:42.327Z,66.60
2022-12-04T19:28:45.386Z,66.72
2022-12-04T19:31:47.426Z,66.54
2022-12-04T19:34:50.551Z,66.86
2022-12-04T19:37:54.944Z,67.08
2022-12-04T19:41:21.717Z,66.92
2022-12-04T19:44:47.788Z,67.16
2022-12-04T19:47:45.686Z,67.16
2022-12-04T19:50:47.570Z,67.38
2022-12-04T19:53:49.617Z,67.32
2022-12-04T19:56:52.643Z,67.35
2022-12-04T19:59:54.533Z,67.25
2022-12-04T20:02:56.479Z,67.54
2022-12-04T20:06:18.256Z,67.73
2022-12-04T20:09:22.295Z,67.75
2022-12-04T20:12:24.785Z,67.92
2022-12-04T20:15:26.715Z,67.94
2022-12-04T20:18:28.579Z,67.99
2022-12-04T20:21:32.026Z,67.96
2022-12-04T20:24:33.982Z,68.19
2022-12-04T20:27:35.867Z,68.32
2022-12-04T20:30:37.678Z,68.19
2022-12-04T20:33:41.209Z,68.69
2022-12-04T20:36:44.546Z,68.34
2022-12-04T20:39:46.399Z,68.97
2022-12-04T20:42:48.261Z,68.63
2022-12-04T20:45:50.180Z,68.49
2022-12-04T20:48:53.538Z,68.64
2022-12-04T20:51:55.395Z,68.78
2022-12-04T20:54:57.277Z,68.73
2022-12-04T20:57:59.141Z,68.97
2022-12-04T21:01:18.387Z,68.74
2022-12-04T21:04:20.586Z,68.89
2022-12-04T21:07:22.672Z,69.06
2022-12-04T21:10:24.664Z,69.34
2022-12-04T21:13:44.772Z,68.98
2022-12-04T21:16:47.673Z,69.09
2022-12-04T21:19:50.572Z,68.81
2022-12-04T21:22:53.174Z,69.34
2022-12-04T21:25:55.867Z,68.77
2022-12-04T21:28:58.619Z,68.83
2022-12-04T21:32:00.669Z,69.15
2022-12-04T21:35:02.926Z,69.00
2022-12-04T21:38:04.755Z,68.80
2022-12-04T21:41:08.299Z,68.76
2022-12-04T21:44:13.027Z,68.81
2022-12-04T21:47:14.887Z,68.98
2022-12-04T21:50:16.883Z,68.81
2022-12-04T21:53:18.791Z,68.75
2022-12-04T21:56:22.479Z,68.31
2022-12-04T21:59:26.114Z,68.90
2022-12-04T22:02:28.486Z,68.45
2022-12-04T22:05:33.414Z,68.52
2022-12-04T22:08:37.883Z,68.25
2022-12-04T22:11:42.088Z,68.15
2022-12-04T22:14:44.378Z,68.30
2022-12-04T22:17:46.299Z,68.12
2022-12-04T22:20:49.239Z,67.96
2022-12-04T22:23:57.919Z,68.12
2022-12-04T22:26:59.949Z,68.42
2022-12-04T22:30:01.757Z,67.94
2022-12-04T22:33:04.035Z,68.08
2022-12-04T22:36:09.185Z,68.09
2022-12-04T22:39:11.345Z,67.87
2022-12-04T22:42:13.526Z,67.93
2022-12-04T22:45:15.382Z,68.45
2022-12-04T22:48:17.245Z,68.08
2022-12-04T22:51:21.444Z,68.20
2022-12-04T22:54:23.354Z,68.37
2022-12-04T22:57:25.709Z,68.22
2022-12-04T23:00:28.370Z,68.70
2022-12-04T23:03:30.273Z,68.48
2022-12-04T23:06:34.005Z,68.35
2022-12-04T23:09:36.250Z,68.58
2022-12-04T23:12:38.161Z,68.80
2022-12-04T23:15:40.107Z,68.19
2022-12-04T23:18:41.980Z,68.05
2022-12-04T23:21:44.845Z,68.40
2022-12-04T23:24:46.584Z,68.12
2022-12-04T23:27:48.924Z,68.39
2022-12-04T23:30:50.831Z,68.62
2022-12-04T23:33:52.811Z,68.50
2022-12-04T23:36:54.669Z,68.73
2022-12-04T23:39:56.872Z,68.83
2022-12-04T23:42:58.947Z,68.73
2022-12-04T23:46:03.423Z,68.79
2022-12-04T23:49:08.600Z,68.65
2022-12-04T23:52:10.323Z,68.89
2022-12-04T23:55:12.176Z,68.69
2022-12-04T23:58:14.029Z,69.34
